Time;durP1;ratioP1;P1;durP2;ratioP2;P2;SDS_P1;SDS_P2;PMS_P1;PMS_P2;Temp;Humidity;BMP_temperature;BMP_pressure;BME280_temperature;BME280_humidity;BME280_pressure;Samples;Min_cycle;Max_cycle;Signal;HPM_P1;HPM_P2
2020/12/28 00:00:57;;;;;;;17.03;9.57;;;;;;;2.70;100.00;97350.45;1874121;76;26280;-82
2020/12/28 00:03:27;;;;;;;16.10;9.27;;;;;;;2.77;100.00;97346.70;1873990;76;26189;-82
2020/12/28 00:05:57;;;;;;;15.73;8.87;;;;;;;2.74;100.00;97350.05;1874171;74;26321;-82
2020/12/28 00:08:27;;;;;;;13.63;7.97;;;;;;;2.75;100.00;97344.27;1874172;76;26190;-83
2020/12/28 00:10:57;;;;;;;15.67;8.00;;;;;;;2.89;100.00;97332.36;1874215;76;26650;-83
2020/12/28 00:13:26;;;;;;;11.83;8.07;;;;;;;2.55;100.00;97327.08;1874229;76;26252;-82
2020/12/28 00:15:56;;;;;;;14.30;8.10;;;;;;;2.45;100.00;97324.63;1874201;76;26193;-83
2020/12/28 00:18:26;;;;;;;13.50;8.17;;;;;;;2.37;100.00;97320.50;1874255;76;26182;-84
2020/12/28 00:20:56;;;;;;;15.03;8.17;;;;;;;2.38;100.00;97321.55;1874274;76;26622;-83
2020/12/28 00:23:26;;;;;;;13.83;7.20;;;;;;;2.40;100.00;97324.77;1874257;76;26294;-83
2020/12/28 00:25:56;;;;;;;15.03;8.07;;;;;;;2.48;100.00;97330.05;1874238;76;26194;-83
2020/12/28 00:28:26;;;;;;;13.13;8.40;;;;;;;2.39;100.00;97324.55;1874173;76;26203;-83
2020/12/28 00:30:56;;;;;;;12.67;8.47;;;;;;;2.37;100.00;97319.94;1874219;76;26190;-84
2020/12/28 00:33:26;;;;;;;16.67;9.07;;;;;;;2.40;100.00;97321.22;1874164;76;26749;-83
2020/12/28 00:35:55;;;;;;;15.03;8.60;;;;;;;2.40;100.00;97319.85;1874058;76;26283;-83
2020/12/28 00:38:25;;;;;;;15.50;8.40;;;;;;;2.49;100.00;97327.53;1874159;76;26234;-81
2020/12/28 00:40:55;;;;;;;15.43;8.37;;;;;;;2.47;100.00;97325.69;1874140;76;26272;-81
2020/12/28 00:43:25;;;;;;;14.20;8.30;;;;;;;2.58;100.00;97319.58;1874285;76;26293;-82
2020/12/28 00:45:56;;;;;;;13.00;8.47;;;;;;;2.42;100.00;97320.36;1874220;76;26656;-81
2020/12/28 00:48:26;;;;;;;16.33;8.50;;;;;;;2.43;100.00;97319.23;1874279;76;26617;-81
2020/12/28 00:50:56;;;;;;;13.33;8.70;;;;;;;2.50;100.00;97317.63;1874052;76;26198;-82
2020/12/28 00:53:26;;;;;;;15.17;8.40;;;;;;;2.39;100.00;97325.92;1874219;76;26817;-81
2020/12/28 00:55:56;;;;;;;15.40;9.07;;;;;;;2.38;100.00;97327.03;1874075;76;26731;-81
2020/12/28 00:58:26;;;;;;;18.30;8.00;;;;;;;2.52;100.00;97324.98;1874255;76;26787;-81
2020/12/28 01:00:56;;;;;;;12.70;8.57;;;;;;;2.61;100.00;97327.74;1874245;76;26684;-80
2020/12/28 01:03:26;;;;;;;12.43;8.43;;;;;;;2.44;100.00;97331.81;1874190;76;26279;-80
2020/12/28 01:05:57;;;;;;;14.53;9.47;;;;;;;2.48;100.00;97328.67;1874231;75;26256;-79
2020/12/28 01:08:27;;;;;;;21.80;10.10;;;;;;;2.55;100.00;97322.97;1874188;76;26186;-79
2020/12/28 01:10:57;;;;;;;16.50;10.53;;;;;;;2.64;100.00;97325.16;1874231;76;26634;-81
2020/12/28 01:13:27;;;;;;;19.30;12.20;;;;;;;2.81;100.00;97320.27;1874261;76;26271;-80
2020/12/28 01:15:56;;;;;;;20.17;12.73;;;;;;;2.72;100.00;97321.62;1874103;76;26279;-80
2020/12/28 01:18:26;;;;;;;19.80;11.80;;;;;;;2.69;100.00;97311.88;1874172;76;26194;-80
2020/12/28 01:20:57;;;;;;;17.50;11.73;;;;;;;2.52;100.00;97314.59;1874129;76;26260;-80
2020/12/28 01:23:27;;;;;;;19.03;12.47;;;;;;;2.57;100.00;97308.94;1874145;76;26672;-81
2020/12/28 01:25:57;;;;;;;16.40;11.53;;;;;;;2.57;100.00;97311.67;1874138;76;26645;-81
2020/12/28 01:28:27;;;;;;;16.50;10.73;;;;;;;2.61;100.00;97313.45;1874205;76;26219;-81
2020/12/28 01:30:56;;;;;;;21.30;11.83;;;;;;;2.44;100.00;97313.42;1874212;76;26667;-81
2020/12/28 01:33:26;;;;;;;20.80;10.80;;;;;;;2.35;100.00;97311.25;1874168;76;26202;-81
2020/12/28 01:35:56;;;;;;;16.90;10.10;;;;;;;2.33;100.00;97313.48;1874196;76;26288;-81
2020/12/28 01:38:26;;;;;;;15.47;9.50;;;;;;;2.38;100.00;97319.38;1874149;76;26292;-81
2020/12/28 01:40:57;;;;;;;17.43;8.63;;;;;;;2.38;100.00;97318.01;1874186;76;26327;-82
2020/12/28 01:43:27;;;;;;;18.97;9.27;;;;;;;2.31;100.00;97323.16;1874173;76;26187;-82
2020/12/28 01:46:00;;;;;;;15.00;8.17;;;;;;;2.50;100.00;97320.93;1874248;76;26642;-82
2020/12/28 01:48:30;;;;;;;12.77;6.57;;;;;;;2.41;100.00;97330.50;1874052;76;26194;-82
2020/12/28 01:51:00;;;;;;;10.87;5.27;;;;;;;2.50;100.00;97320.38;1874134;76;26207;-83
2020/12/28 01:53:31;;;;;;;9.97;5.10;;;;;;;2.60;100.00;97315.16;1874209;76;26284;-81
2020/12/28 01:56:05;;;;;;;16.40;6.00;;;;;;;2.53;100.00;97315.62;1874210;76;26273;-83
2020/12/28 01:58:35;;;;;;;9.10;5.50;;;;;;;2.64;100.00;97325.16;1874162;76;26609;-81
2020/12/28 02:01:05;;;;;;;13.77;5.60;;;;;;;2.68;100.00;97326.70;1874138;76;26201;-81
2020/12/28 02:03:35;;;;;;;9.73;5.60;;;;;;;2.61;100.00;97332.63;1874137;76;26264;-81
2020/12/28 02:06:05;;;;;;;10.47;4.20;;;;;;;2.70;100.00;97332.64;1874129;76;26209;-82
2020/12/28 02:08:35;;;;;;;14.00;6.43;;;;;;;2.64;100.00;97340.79;1874151;74;26684;-81
2020/12/28 02:11:06;;;;;;;9.63;6.83;;;;;;;2.70;100.00;97333.45;1874176;76;26632;-81
2020/12/28 02:13:37;;;;;;;12.07;6.77;;;;;;;2.54;100.00;97335.05;1874121;76;26253;-81
2020/12/28 02:16:08;;;;;;;10.53;6.47;;;;;;;2.44;100.00;97332.59;1874081;76;26276;-81
2020/12/28 02:18:38;;;;;;;9.37;6.10;;;;;;;2.36;100.00;97333.94;1874144;76;26641;-82
2020/12/28 02:21:09;;;;;;;10.40;5.67;;;;;;;2.37;100.00;97334.19;1874140;76;26637;-81
2020/12/28 02:23:39;;;;;;;11.23;5.20;;;;;;;2.20;100.00;97334.38;1874155;76;26234;-81
2020/12/28 02:26:09;;;;;;;11.37;5.87;;;;;;;2.15;100.00;97334.52;1874160;76;26195;-81
2020/12/28 02:28:39;;;;;;;9.93;6.23;;;;;;;2.17;100.00;97330.92;1874188;76;26276;-82
2020/12/28 02:31:09;;;;;;;10.07;5.87;;;;;;;2.15;100.00;97326.31;1874191;76;26308;-83
2020/12/28 02:33:40;;;;;;;10.77;5.30;;;;;;;2.23;100.00;97321.98;1874126;76;26194;-83
2020/12/28 02:36:10;;;;;;;8.13;4.47;;;;;;;2.07;100.00;97313.96;1874093;76;26194;-83
2020/12/28 02:38:41;;;;;;;12.23;5.13;;;;;;;2.13;100.00;97315.45;1874192;76;26215;-82
2020/12/28 02:41:11;;;;;;;9.13;5.37;;;;;;;2.22;100.00;97308.07;1874182;76;26277;-82
2020/12/28 02:43:41;;;;;;;9.33;5.47;;;;;;;2.24;100.00;97294.86;1874168;76;26201;-82
2020/12/28 02:46:11;;;;;;;12.47;5.97;;;;;;;2.16;100.00;97279.22;1874151;76;26191;-82
2020/12/28 02:48:40;;;;;;;12.33;5.90;;;;;;;2.14;100.00;97278.75;1874154;76;26249;-81
2020/12/28 02:51:13;;;;;;;10.00;5.03;;;;;;;2.05;100.00;97280.64;1874098;76;26201;-81
2020/12/28 02:53:43;;;;;;;10.13;6.10;;;;;;;2.17;100.00;97274.80;1874220;76;26296;-83
2020/12/28 02:56:13;;;;;;;9.30;5.60;;;;;;;2.13;100.00;97279.86;1874108;76;26738;-84
2020/12/28 02:58:42;;;;;;;8.40;5.37;;;;;;;2.15;100.00;97285.25;1874133;76;26210;-83
2020/12/28 03:01:13;;;;;;;13.87;5.40;;;;;;;2.01;100.00;97283.77;1874039;76;26198;-83
2020/12/28 03:03:43;;;;;;;7.73;4.83;;;;;;;2.00;100.00;97287.63;1874072;76;26198;-83
2020/12/28 03:06:13;;;;;;;10.00;5.10;;;;;;;1.93;100.00;97289.99;1874131;76;26199;-82
2020/12/28 03:08:43;;;;;;;12.17;5.70;;;;;;;1.92;100.00;97291.95;1874126;74;26242;-81
2020/12/28 03:11:13;;;;;;;9.30;5.20;;;;;;;1.91;100.00;97289.52;1874059;76;26190;-82
2020/12/28 03:13:42;;;;;;;8.73;4.90;;;;;;;2.25;100.00;97295.11;1874070;76;26278;-81
2020/12/28 03:16:12;;;;;;;9.13;4.70;;;;;;;2.17;100.00;97293.16;1874087;76;26201;-81
2020/12/28 03:18:43;;;;;;;10.57;5.10;;;;;;;1.95;100.00;97297.34;1874102;76;26203;-82
2020/12/28 03:21:13;;;;;;;8.90;5.00;;;;;;;1.87;100.00;97288.54;1874091;76;26276;-83
2020/12/28 03:23:43;;;;;;;7.03;4.83;;;;;;;1.81;100.00;97283.76;1874101;76;26300;-82
2020/12/28 03:26:14;;;;;;;9.90;4.80;;;;;;;1.80;100.00;97282.95;1874055;76;26327;-83
2020/12/28 03:28:43;;;;;;;8.93;4.30;;;;;;;1.94;100.00;97277.94;1874036;76;26312;-83
2020/12/28 03:31:13;;;;;;;10.07;4.73;;;;;;;1.94;100.00;97274.64;1874083;76;26257;-82
2020/12/28 03:33:43;;;;;;;10.17;5.23;;;;;;;1.81;100.00;97273.63;1874009;76;26246;-83
2020/12/28 03:36:13;;;;;;;10.27;4.60;;;;;;;1.88;100.00;97282.77;1874097;76;26198;-81
2020/12/28 03:38:43;;;;;;;10.73;4.80;;;;;;;1.69;100.00;97284.36;1874007;76;26271;-82
2020/12/28 03:41:13;;;;;;;9.67;4.50;;;;;;;1.76;100.00;97287.99;1874185;76;26265;-82
2020/12/28 03:43:43;;;;;;;8.93;4.60;;;;;;;1.71;100.00;97287.57;1874104;76;26641;-82
2020/12/28 03:46:13;;;;;;;7.43;3.97;;;;;;;1.60;100.00;97286.23;1874131;76;26726;-83
2020/12/28 03:48:43;;;;;;;9.37;4.93;;;;;;;1.68;100.00;97290.95;1874097;76;26742;-82
2020/12/28 03:51:14;;;;;;;8.43;4.57;;;;;;;1.89;100.00;97284.91;1874215;76;26618;-82
2020/12/28 03:53:44;;;;;;;6.97;4.47;;;;;;;1.88;100.00;97296.44;1874179;76;26300;-84
2020/12/28 03:56:14;;;;;;;8.53;3.97;;;;;;;1.89;100.00;97295.85;1874189;76;26184;-84
2020/12/28 03:58:43;;;;;;;12.60;4.90;;;;;;;1.91;100.00;97298.53;1874186;76;26265;-82
2020/12/28 04:01:14;;;;;;;7.87;3.73;;;;;;;2.03;100.00;97296.56;1874163;76;26313;-82
2020/12/28 04:03:44;;;;;;;8.50;4.17;;;;;;;2.13;100.00;97294.91;1874109;76;26327;-83
2020/12/28 04:06:14;;;;;;;7.07;4.00;;;;;;;2.22;100.00;97287.55;1874185;76;26355;-83
2020/12/28 04:08:43;;;;;;;8.47;4.27;;;;;;;2.29;100.00;97293.34;1874081;74;26316;-84
2020/12/28 04:11:13;;;;;;;10.00;4.07;;;;;;;2.38;100.00;97287.33;1874163;76;26198;-81
2020/12/28 04:13:44;;;;;;;7.93;4.70;;;;;;;2.42;100.00;97273.80;1874173;76;26194;-81
2020/12/28 04:16:16;;;;;;;10.63;4.67;;;;;;;2.19;100.00;97271.73;1874205;76;26260;-82
2020/12/28 04:18:45;;;;;;;9.83;4.23;;;;;;;2.09;100.00;97264.64;1874104;76;26207;-82
2020/12/28 04:21:16;;;;;;;10.40;5.27;;;;;;;2.04;100.00;97267.52;1874135;76;26199;-81
2020/12/28 04:23:46;;;;;;;11.20;4.50;;;;;;;2.01;100.00;97248.20;1874055;76;26719;-82
2020/12/28 04:26:16;;;;;;;10.60;4.33;;;;;;;1.97;100.00;97241.16;1874151;76;26209;-82
2020/12/28 04:28:46;;;;;;;7.13;4.17;;;;;;;2.14;100.00;97245.31;1874171;76;26194;-81
2020/12/28 04:31:15;;;;;;;6.63;4.27;;;;;;;1.92;100.00;97243.26;1874172;76;26665;-82
2020/12/28 04:33:45;;;;;;;10.10;3.90;;;;;;;1.88;100.00;97240.91;1874176;76;26641;-82
2020/12/28 04:36:15;;;;;;;8.27;4.70;;;;;;;1.81;100.00;97229.86;1874159;76;26199;-83
2020/12/28 04:38:45;;;;;;;10.53;4.10;;;;;;;1.81;100.00;97214.00;1874144;76;26279;-83
2020/12/28 04:41:15;;;;;;;9.53;4.37;;;;;;;1.84;100.00;97213.36;1874120;76;26233;-82
2020/12/28 04:43:45;;;;;;;7.40;4.33;;;;;;;1.79;100.00;97213.53;1874113;76;26731;-83
2020/12/28 04:46:16;;;;;;;6.93;3.60;;;;;;;1.75;100.00;97205.72;1874118;76;26206;-82
2020/12/28 04:48:46;;;;;;;9.60;3.63;;;;;;;1.69;100.00;97205.60;1874188;76;26631;-83
2020/12/28 04:51:18;;;;;;;9.37;3.73;;;;;;;1.65;100.00;97201.33;1874136;76;26289;-82
2020/12/28 04:53:48;;;;;;;8.60;3.50;;;;;;;1.57;100.00;97204.03;1874142;76;26194;-83
2020/12/28 04:56:17;;;;;;;8.63;3.33;;;;;;;1.63;100.00;97200.83;1874166;76;26198;-83
2020/12/28 04:58:47;;;;;;;6.97;3.00;;;;;;;1.64;100.00;97205.18;1874085;76;26740;-83
2020/12/28 05:01:17;;;;;;;5.27;2.97;;;;;;;1.70;100.00;97208.59;1862079;75;928523;-83
2020/12/28 05:03:49;;;;;;;6.07;3.50;;;;;;;1.66;100.00;97208.98;1874164;76;26270;-83
2020/12/28 05:06:18;;;;;;;6.90;3.90;;;;;;;1.54;100.00;97222.45;1874131;76;26284;-82
2020/12/28 05:08:48;;;;;;;9.03;4.87;;;;;;;1.60;100.00;97232.11;1874034;74;26214;-82
2020/12/28 05:11:18;;;;;;;8.37;3.90;;;;;;;1.55;100.00;97241.25;1874139;76;26291;-82
2020/12/28 05:13:49;;;;;;;7.53;3.17;;;;;;;1.47;100.00;97242.58;1874224;76;26715;-81
2020/12/28 05:16:19;;;;;;;7.27;3.27;;;;;;;1.48;100.00;97242.83;1874221;76;26198;-83
2020/12/28 05:18:59;;;;;;;6.07;3.60;;;;;;;1.43;100.00;97247.88;1874208;76;26202;-83
2020/12/28 05:21:29;;;;;;;7.13;3.50;;;;;;;1.45;100.00;97245.64;1874264;76;26301;-82
2020/12/28 05:23:59;;;;;;;6.07;3.40;;;;;;;1.42;100.00;97244.08;1874263;76;26223;-82
2020/12/28 05:26:30;;;;;;;6.70;3.53;;;;;;;1.35;100.00;97239.88;1874187;76;26276;-82
2020/12/28 05:29:01;;;;;;;6.67;3.80;;;;;;;1.50;100.00;97237.87;1874034;76;26729;-83
2020/12/28 05:31:33;;;;;;;6.87;4.10;;;;;;;1.47;100.00;97226.17;1874174;76;26748;-83
2020/12/28 05:34:03;;;;;;;8.83;4.10;;;;;;;1.37;100.00;97228.05;1874136;76;26696;-84
2020/12/28 05:36:33;;;;;;;5.40;3.63;;;;;;;1.29;100.00;97232.92;1874216;76;26314;-84
2020/12/28 05:39:03;;;;;;;7.93;3.80;;;;;;;1.17;100.00;97236.80;1874108;76;26268;-83
2020/12/28 05:41:33;;;;;;;7.10;3.70;;;;;;;1.19;100.00;97244.70;1874202;76;26897;-83
2020/12/28 05:44:14;;;;;;;6.90;4.10;;;;;;;1.29;100.00;97252.05;1874084;76;26711;-83
2020/12/28 05:46:45;;;;;;;9.57;3.93;;;;;;;1.47;100.00;97262.53;1874135;76;26633;-84
2020/12/28 05:49:17;;;;;;;6.63;4.03;;;;;;;1.47;100.00;97256.25;1874170;76;26649;-82
2020/12/28 05:51:50;;;;;;;9.67;4.30;;;;;;;1.40;100.00;97243.59;1874074;76;26188;-82
2020/12/28 05:54:21;;;;;;;8.13;3.80;;;;;;;1.31;100.00;97246.28;1874198;76;26199;-81
2020/12/28 05:56:51;;;;;;;5.60;3.40;;;;;;;1.31;100.00;97251.20;1874102;76;26264;-81
2020/12/28 05:59:23;;;;;;;8.33;3.90;;;;;;;1.23;100.00;97256.61;1874105;76;26273;-80
2020/12/28 06:01:53;;;;;;;7.93;4.00;;;;;;;1.22;100.00;97255.80;1874181;76;26202;-80
2020/12/28 06:04:23;;;;;;;6.07;3.60;;;;;;;1.10;100.00;97257.49;1874123;76;26688;-80
2020/12/28 06:06:57;;;;;;;7.87;4.17;;;;;;;1.11;100.00;97253.65;1874067;76;26653;-80
2020/12/28 06:09:28;;;;;;;6.47;3.80;;;;;;;1.09;100.00;97246.31;1874065;75;26277;-81
2020/12/28 06:12:05;;;;;;;8.30;3.97;;;;;;;1.00;100.00;97250.91;1874114;76;26187;-80
2020/12/28 06:14:37;;;;;;;8.97;3.60;;;;;;;1.01;100.00;97245.70;1874095;76;26198;-80
2020/12/28 06:17:08;;;;;;;9.47;4.10;;;;;;;1.04;100.00;97239.59;1874229;76;26625;-82
2020/12/28 06:19:39;;;;;;;8.10;3.70;;;;;;;1.07;100.00;97234.90;1874091;76;26195;-82
2020/12/28 06:22:20;;;;;;;5.00;3.27;;;;;;;0.95;100.00;97228.61;1874086;76;26202;-82
2020/12/28 06:25:04;;;;;;;7.47;4.07;;;;;;;0.98;100.00;97234.03;1874064;76;26755;-81
2020/12/28 06:27:36;;;;;;;7.10;3.70;;;;;;;1.00;100.00;97238.05;1874150;76;26245;-82
2020/12/28 06:30:14;;;;;;;8.50;4.13;;;;;;;1.07;100.00;97229.44;1874132;76;26253;-83
2020/12/28 06:32:46;;;;;;;11.83;4.50;;;;;;;1.13;100.00;97233.63;1874116;76;26186;-82
2020/12/28 06:35:17;;;;;;;6.73;4.23;;;;;;;1.25;100.00;97231.12;1874156;76;26254;-82
2020/12/28 06:37:50;;;;;;;8.20;4.40;;;;;;;1.20;100.00;97235.35;1874194;76;26202;-84
2020/12/28 06:40:30;;;;;;;7.83;4.00;;;;;;;1.14;100.00;97231.16;1874183;76;26194;-82
2020/12/28 06:43:15;;;;;;;8.77;4.13;;;;;;;1.25;100.00;97227.84;1874230;76;26195;-82
2020/12/28 06:45:47;;;;;;;7.63;4.23;;;;;;;1.17;100.00;97230.52;1874152;76;26345;-79
2020/12/28 06:48:21;;;;;;;8.17;4.37;;;;;;;0.96;100.00;97238.43;1874062;76;26652;-79
2020/12/28 06:50:51;;;;;;;7.10;4.50;;;;;;;1.03;100.00;97234.69;1874138;76;26191;-79
2020/12/28 06:53:25;;;;;;;11.27;4.47;;;;;;;1.10;100.00;97226.87;1874125;76;26191;-83
2020/12/28 06:55:56;;;;;;;7.67;4.83;;;;;;;1.11;100.00;97224.95;1874116;76;26265;-79
2020/12/28 06:58:26;;;;;;;6.27;4.43;;;;;;;1.16;100.00;97215.23;1872906;76;26242;-80
2020/12/28 07:01:00;;;;;;;10.93;4.00;;;;;;;1.08;100.00;97207.80;1874107;76;26201;-81
2020/12/28 07:03:30;;;;;;;7.07;3.97;;;;;;;1.11;100.00;97215.39;1874060;76;26194;-80
2020/12/28 07:06:01;;;;;;;7.97;4.10;;;;;;;1.12;100.00;97210.96;1874142;76;26257;-79
2020/12/28 07:08:33;;;;;;;5.87;3.83;;;;;;;1.32;100.00;97213.19;1874041;76;26268;-80
2020/12/28 07:11:04;;;;;;;7.47;4.00;;;;;;;1.36;100.00;97209.25;1874122;74;26700;-80
2020/12/28 07:13:34;;;;;;;5.50;4.10;;;;;;;1.30;100.00;97225.53;1874110;76;26317;-80
2020/12/28 07:16:05;;;;;;;8.80;4.13;;;;;;;1.30;100.00;97229.08;1874169;76;26273;-80
2020/12/28 07:18:36;;;;;;;7.33;4.13;;;;;;;1.31;100.00;97225.78;1874219;76;26268;-80
2020/12/28 07:21:07;;;;;;;7.93;4.30;;;;;;;1.41;100.00;97232.36;1874087;76;26763;-82
2020/12/28 07:23:37;;;;;;;8.93;4.63;;;;;;;1.35;100.00;97235.78;1874187;76;26292;-81
2020/12/28 07:26:09;;;;;;;9.30;4.50;;;;;;;1.16;100.00;97230.27;1874222;76;26645;-80
2020/12/28 07:28:41;;;;;;;7.33;4.30;;;;;;;1.29;100.00;97230.75;1874177;76;26273;-79
2020/12/28 07:31:11;;;;;;;8.00;4.57;;;;;;;1.26;100.00;97233.55;1874201;76;26269;-78
2020/12/28 07:33:47;;;;;;;8.63;4.40;;;;;;;1.22;100.00;97240.77;1874259;76;26642;-79
2020/12/28 07:36:20;;;;;;;8.73;4.57;;;;;;;1.27;100.00;97235.73;1874262;76;26716;-80
2020/12/28 07:38:51;;;;;;;7.33;4.67;;;;;;;1.44;100.00;97233.09;1874200;76;26214;-80
2020/12/28 07:41:23;;;;;;;8.53;4.30;;;;;;;1.30;100.00;97246.03;1874254;76;26284;-79
2020/12/28 07:43:54;;;;;;;6.80;4.70;;;;;;;1.27;100.00;97246.11;1874336;76;26722;-80
2020/12/28 07:46:28;;;;;;;7.07;4.47;;;;;;;1.29;100.00;97252.61;1874300;76;26289;-79
2020/12/28 07:49:01;;;;;;;8.80;4.23;;;;;;;1.27;100.00;97250.21;1873575;76;26646;-78
2020/12/28 07:51:34;;;;;;;6.97;4.30;;;;;;;1.29;100.00;97253.98;1874346;76;26681;-78
2020/12/28 07:54:11;;;;;;;8.33;5.10;;;;;;;1.38;100.00;97247.45;1874324;76;26265;-81
2020/12/28 07:56:46;;;;;;;8.40;4.53;;;;;;;1.49;100.00;97245.27;1873037;76;26226;-80
2020/12/28 07:59:51;;;;;;;6.10;4.13;;;;;;;1.50;100.00;97252.91;1874243;76;26260;-81
2020/12/28 08:02:48;;;;;;;6.67;4.33;;;;;;;1.37;100.00;97251.29;1856256;76;26199;-78
2020/12/28 08:05:20;;;;;;;7.10;4.27;;;;;;;1.42;100.00;97250.91;1873570;76;26597;-78
2020/12/28 08:07:50;;;;;;;7.97;4.63;;;;;;;1.43;100.00;97249.23;1874175;76;26207;-79
2020/12/28 08:10:20;;;;;;;7.70;4.37;;;;;;;1.47;100.00;97250.22;1874254;76;26279;-80
2020/12/28 08:12:58;;;;;;;8.63;4.20;;;;;;;1.54;100.00;97238.27;1874242;75;26426;-79
2020/12/28 08:15:30;;;;;;;5.67;4.03;;;;;;;1.82;100.00;97239.69;1873535;76;26183;-79
2020/12/28 08:18:08;;;;;;;8.60;4.37;;;;;;;1.91;100.00;97238.91;1874091;76;26198;-78
2020/12/28 08:20:40;;;;;;;7.50;4.53;;;;;;;1.97;100.00;97234.91;1874180;76;26257;-77
2020/12/28 08:23:10;;;;;;;9.23;4.27;;;;;;;1.84;100.00;97237.98;1874176;76;26284;-78
2020/12/28 08:25:42;;;;;;;6.37;4.27;;;;;;;1.98;100.00;97236.50;1874188;76;26187;-78
2020/12/28 08:28:13;;;;;;;7.93;3.90;;;;;;;2.12;100.00;97234.45;1874118;76;26614;-78
2020/12/28 08:30:44;;;;;;;8.83;5.20;;;;;;;2.09;100.00;97242.75;1874186;76;26602;-79
2020/12/28 08:33:18;;;;;;;9.23;3.93;;;;;;;2.04;100.00;97241.52;1874204;76;26183;-79
2020/12/28 08:35:50;;;;;;;6.67;3.83;;;;;;;2.04;100.00;97238.79;1874161;76;26206;-79
2020/12/28 08:38:22;;;;;;;5.93;4.07;;;;;;;1.93;100.00;97241.55;1874196;76;26199;-78
2020/12/28 08:40:57;;;;;;;6.83;4.57;;;;;;;1.94;100.00;97239.07;1872752;76;26203;-78
2020/12/28 08:43:27;;;;;;;8.50;4.93;;;;;;;1.92;100.00;97237.23;1874297;76;26817;-80
2020/12/28 08:46:05;;;;;;;8.40;5.00;;;;;;;1.90;100.00;97249.03;1874179;76;26642;-79
2020/12/28 08:48:35;;;;;;;8.23;4.67;;;;;;;1.97;100.00;97243.89;1874170;76;26195;-79
2020/12/28 08:51:15;;;;;;;7.73;4.97;;;;;;;2.11;100.00;97239.11;1874172;76;26272;-79
2020/12/28 08:53:49;;;;;;;9.50;5.03;;;;;;;2.04;100.00;97238.79;1874250;76;26190;-79
2020/12/28 08:56:20;;;;;;;10.30;5.40;;;;;;;1.90;100.00;97231.81;1874196;76;26657;-81
2020/12/28 08:58:50;;;;;;;8.50;5.00;;;;;;;2.04;100.00;97233.87;1874281;76;26194;-78
2020/12/28 09:01:20;;;;;;;6.77;4.47;;;;;;;2.09;100.00;97240.57;1874117;76;26719;-82
2020/12/28 09:03:50;;;;;;;8.00;4.80;;;;;;;2.13;100.00;97238.81;1874157;76;26210;-81
2020/12/28 09:06:20;;;;;;;6.67;4.40;;;;;;;2.10;100.00;97240.23;1874174;76;26191;-81
2020/12/28 09:08:50;;;;;;;6.77;4.97;;;;;;;2.19;100.00;97241.63;1874160;76;26199;-80
2020/12/28 09:11:20;;;;;;;6.93;4.50;;;;;;;2.35;100.00;97248.84;1874164;76;26621;-79
2020/12/28 09:13:49;;;;;;;6.57;4.40;;;;;;;2.45;100.00;97253.42;1874153;74;26742;-81
2020/12/28 09:16:19;;;;;;;9.43;4.77;;;;;;;2.29;100.00;97260.49;1874164;76;26199;-80
2020/12/28 09:18:49;;;;;;;8.33;4.93;;;;;;;2.34;100.00;97252.13;1874219;76;26200;-81
2020/12/28 09:21:19;;;;;;;8.30;5.07;;;;;;;2.25;100.00;97254.05;1874156;76;26280;-80
2020/12/28 09:23:49;;;;;;;9.10;4.87;;;;;;;2.19;100.00;97249.83;1874110;76;26226;-80
2020/12/28 09:26:19;;;;;;;8.37;5.43;;;;;;;2.23;100.00;97262.56;1874189;76;26245;-78
2020/12/28 09:28:50;;;;;;;8.60;5.23;;;;;;;2.28;100.00;97261.05;1874181;76;26202;-79
2020/12/28 09:31:20;;;;;;;12.07;6.60;;;;;;;2.54;100.00;97266.57;1874133;76;26277;-80
2020/12/28 09:33:50;;;;;;;7.03;5.00;;;;;;;2.52;100.00;97267.47;1874195;76;26634;-80
2020/12/28 09:36:21;;;;;;;10.17;5.67;;;;;;;2.46;100.00;97271.48;1874205;76;26621;-81
2020/12/28 09:38:51;;;;;;;10.63;5.37;;;;;;;2.39;100.00;97275.81;1874104;76;26626;-81
2020/12/28 09:41:20;;;;;;;9.43;5.60;;;;;;;2.36;100.00;97269.59;1874210;76;26358;-81
2020/12/28 09:43:51;;;;;;;9.10;5.10;;;;;;;2.51;100.00;97277.37;1874147;76;26211;-80
2020/12/28 09:46:22;;;;;;;8.07;5.73;;;;;;;2.59;100.00;97275.20;1874215;76;26376;-79
2020/12/28 09:48:52;;;;;;;7.27;5.13;;;;;;;2.55;100.00;97276.97;1874246;76;26202;-81
2020/12/28 09:51:22;;;;;;;12.57;5.70;;;;;;;2.60;100.00;97276.81;1874168;76;26198;-82
2020/12/28 09:53:52;;;;;;;5.87;4.70;;;;;;;2.69;100.00;97278.44;1874156;76;26809;-85
2020/12/28 09:56:22;;;;;;;6.53;5.17;;;;;;;2.70;100.00;97281.41;1874255;76;26198;-83
2020/12/28 09:58:52;;;;;;;8.60;5.83;;;;;;;2.69;100.00;97282.55;1874148;76;26186;-85
2020/12/28 10:01:22;;;;;;;8.23;5.67;;;;;;;2.70;100.00;97281.41;1874097;76;26308;-86
2020/12/28 10:03:51;;;;;;;9.30;5.50;;;;;;;2.75;100.00;97278.52;1874126;76;26746;-84
2020/12/28 10:06:35;;;;;;;10.27;6.63;;;;;;;2.75;100.00;97273.59;1874148;76;26869;-84
2020/12/28 10:09:06;;;;;;;8.70;6.00;;;;;;;2.78;100.00;97283.12;1874236;76;26707;-82
2020/12/28 10:11:35;;;;;;;7.97;5.97;;;;;;;2.77;100.00;97285.05;1874090;76;26198;-80
2020/12/28 10:14:06;;;;;;;10.27;5.60;;;;;;;2.89;100.00;97282.47;1874152;74;26298;-80
2020/12/28 10:16:36;;;;;;;8.97;6.30;;;;;;;2.85;100.00;97289.72;1874057;76;26645;-81
2020/12/28 10:19:06;;;;;;;10.57;6.40;;;;;;;3.01;100.00;97296.33;1874119;76;26371;-81
2020/12/28 10:21:36;;;;;;;9.70;6.30;;;;;;;3.20;100.00;97298.19;1874067;76;26268;-81
2020/12/28 10:24:06;;;;;;;8.40;6.30;;;;;;;3.10;100.00;97305.92;1874065;76;26299;-80
2020/12/28 10:26:37;;;;;;;9.97;6.60;;;;;;;3.08;100.00;97308.20;1874164;76;26590;-81
2020/12/28 10:29:08;;;;;;;13.13;7.60;;;;;;;3.11;100.00;97303.42;1874132;76;26297;-81
2020/12/28 10:31:38;;;;;;;13.50;7.63;;;;;;;3.14;100.00;97300.03;1874189;76;26293;-81
2020/12/28 10:34:08;;;;;;;10.73;7.37;;;;;;;3.14;100.00;97295.92;1874143;76;26245;-80
2020/12/28 10:36:38;;;;;;;11.83;8.23;;;;;;;3.11;100.00;97295.20;1874097;76;26338;-81
2020/12/28 10:39:08;;;;;;;13.20;8.63;;;;;;;3.13;100.00;97297.85;1874115;76;26697;-80
2020/12/28 10:41:37;;;;;;;13.43;8.27;;;;;;;3.20;100.00;97295.45;1874068;76;26222;-81
2020/12/28 10:44:07;;;;;;;12.30;7.73;;;;;;;3.26;100.00;97300.17;1874207;76;26304;-80
2020/12/28 10:46:39;;;;;;;12.17;7.93;;;;;;;3.40;100.00;97311.78;1874109;76;26201;-81
2020/12/28 10:49:09;;;;;;;11.33;7.63;;;;;;;3.46;100.00;97309.69;1874081;76;26280;-82
2020/12/28 10:51:39;;;;;;;13.43;8.20;;;;;;;3.41;100.00;97309.29;1874186;76;26201;-82
2020/12/28 10:54:09;;;;;;;12.53;8.80;;;;;;;3.55;100.00;97311.25;1874193;76;26221;-82
2020/12/28 10:56:38;;;;;;;11.90;7.40;;;;;;;3.70;100.00;97317.37;1874272;76;26250;-82
2020/12/28 10:59:08;;;;;;;12.07;8.27;;;;;;;3.70;100.00;97315.44;1874314;76;26291;-81
2020/12/28 11:01:38;;;;;;;14.20;8.90;;;;;;;3.74;100.00;97316.39;1874208;76;26256;-81
2020/12/28 11:04:08;;;;;;;12.87;8.37;;;;;;;3.79;100.00;97319.52;1874200;76;26252;-81
2020/12/28 11:06:43;;;;;;;12.27;7.97;;;;;;;3.74;100.00;97321.88;1874157;76;26281;-81
2020/12/28 11:09:13;;;;;;;11.97;8.17;;;;;;;3.73;100.00;97323.00;1874108;76;26205;-80
2020/12/28 11:11:44;;;;;;;13.60;8.70;;;;;;;3.72;100.00;97332.39;1874102;76;26199;-81
2020/12/28 11:14:14;;;;;;;12.70;8.57;;;;;;;3.77;100.00;97332.19;1873807;74;26235;-81
2020/12/28 11:16:43;;;;;;;12.13;7.80;;;;;;;3.87;100.00;97339.28;1874183;76;26186;-82
2020/12/28 11:19:13;;;;;;;12.33;8.40;;;;;;;3.89;100.00;97348.81;1874094;76;26275;-81
2020/12/28 11:21:45;;;;;;;12.63;8.77;;;;;;;3.96;100.00;97348.30;1874106;76;26187;-82
2020/12/28 11:24:16;;;;;;;12.30;8.57;;;;;;;3.84;100.00;97351.73;1874050;76;26241;-81
2020/12/28 11:26:46;;;;;;;12.43;9.17;;;;;;;3.95;100.00;97352.17;1874055;76;26690;-82
2020/12/28 11:29:16;;;;;;;13.10;10.70;;;;;;;3.87;100.00;97349.69;1874035;76;26288;-81
2020/12/28 11:31:47;;;;;;;15.13;10.70;;;;;;;3.76;100.00;97352.56;1874062;76;26283;-82
2020/12/28 11:34:17;;;;;;;17.23;10.43;;;;;;;3.90;100.00;97352.34;1874093;76;26214;-81
2020/12/28 11:36:47;;;;;;;13.63;10.57;;;;;;;3.89;100.00;97350.75;1874189;76;26662;-82
2020/12/28 11:39:17;;;;;;;14.87;9.17;;;;;;;3.90;100.00;97356.45;1874105;76;26259;-81
2020/12/28 11:41:46;;;;;;;16.17;9.73;;;;;;;4.02;100.00;97358.76;1874046;76;26762;-82
2020/12/28 11:44:17;;;;;;;13.27;10.03;;;;;;;4.15;100.00;97363.80;1874034;76;26187;-82
2020/12/28 11:46:48;;;;;;;17.67;10.00;;;;;;;4.34;100.00;97362.86;1873965;76;26198;-83